Time;durP1;ratioP1;P1;durP2;ratioP2;P2;SDS_P1;SDS_P2;PMS_P1;PMS_P2;Temp;Humidity;BMP_temperature;BMP_pressure;BME280_temperature;BME280_humidity;BME280_pressure;Samples;Min_cycle;Max_cycle;Signal;HPM_P1;HPM_P2
2022/12/25 00:02:02;;;;;;;22.40;21.60;;;7.50;99.90;;;;;;5027614;28;20037;-77
2022/12/25 00:04:28;;;;;;;20.42;19.73;;;7.50;99.90;;;;;;5029530;28;20041;-78
2022/12/25 00:06:54;;;;;;;21.80;21.00;;;7.50;99.90;;;;;;5026264;28;20038;-76
2022/12/25 00:09:20;;;;;;;23.05;22.23;;;7.50;99.90;;;;;;5019516;28;20024;-76
2022/12/25 00:11:45;;;;;;;23.95;23.02;;;7.60;99.90;;;;;;5030833;28;20049;-78
2022/12/25 00:14:11;;;;;;;22.67;21.88;;;7.60;99.90;;;;;;5033801;28;20403;-77
2022/12/25 00:16:36;;;;;;;22.48;21.67;;;7.60;99.90;;;;;;5021132;28;20025;-77
2022/12/25 00:19:02;;;;;;;25.95;24.58;;;7.60;99.90;;;;;;5020491;28;20030;-77
2022/12/25 00:21:28;;;;;;;22.63;21.83;;;7.60;99.90;;;;;;5018410;28;20057;-78
2022/12/25 00:23:55;;;;;;;23.77;22.88;;;7.60;99.90;;;;;;5033671;28;20029;-78
2022/12/25 00:26:21;;;;;;;23.60;22.70;;;7.60;99.90;;;;;;5031854;28;20086;-78
2022/12/25 00:28:47;;;;;;;27.00;25.52;;;7.60;99.90;;;;;;5025339;28;20393;-78
2022/12/25 00:31:16;;;;;;;24.52;23.63;;;7.60;99.90;;;;;;5031483;28;20017;-77
2022/12/25 00:33:44;;;;;;;23.75;22.85;;;7.60;99.90;;;;;;5031511;28;20022;-78
2022/12/25 00:36:10;;;;;;;23.70;22.80;;;7.60;99.90;;;;;;5017759;28;20381;-75
2022/12/25 00:38:37;;;;;;;23.40;22.50;;;7.60;99.90;;;;;;5019017;28;20018;-78
2022/12/25 00:41:11;;;;;;;22.35;21.55;;;7.60;99.90;;;;;;5019978;28;20033;-76
2022/12/25 00:43:37;;;;;;;21.60;20.80;;;7.70;99.90;;;;;;5022157;28;20026;-77
2022/12/25 00:46:04;;;;;;;22.90;22.10;;;7.70;99.90;;;;;;5042178;28;20022;-77
2022/12/25 00:48:31;;;;;;;21.27;20.48;;;7.70;99.90;;;;;;5043060;28;20026;-77
2022/12/25 00:51:02;;;;;;;22.10;21.30;;;7.70;99.90;;;;;;5030005;28;20563;-77
2022/12/25 00:53:28;;;;;;;23.02;22.23;;;7.70;99.90;;;;;;5034948;28;20412;-76
2022/12/25 00:55:56;;;;;;;23.50;22.60;;;7.70;99.90;;;;;;5033894;28;20013;-77
2022/12/25 00:58:24;;;;;;;25.17;24.27;;;7.70;99.90;;;;;;5022515;28;20033;-77
2022/12/25 01:00:50;;;;;;;22.38;21.58;;;7.70;99.90;;;;;;5031474;28;20025;-77
2022/12/25 01:03:16;;;;;;;22.60;21.80;;;7.70;99.90;;;;;;5024650;28;20387;-76
2022/12/25 01:05:43;;;;;;;21.48;20.67;;;7.70;99.90;;;;;;5036918;28;20029;-76
2022/12/25 01:08:08;;;;;;;22.63;21.83;;;7.70;99.90;;;;;;5019105;28;20026;-77
2022/12/25 01:10:34;;;;;;;22.45;21.65;;;7.70;99.90;;;;;;5023693;28;20080;-77
2022/12/25 01:12:59;;;;;;;23.73;22.83;;;7.70;99.90;;;;;;5036029;28;20025;-76
2022/12/25 01:15:25;;;;;;;24.63;23.73;;;7.60;99.90;;;;;;5018098;28;20099;-77
2022/12/25 01:17:51;;;;;;;22.70;21.90;;;7.70;99.90;;;;;;5019414;28;20037;-77
2022/12/25 01:20:17;;;;;;;22.48;21.67;;;7.60;99.90;;;;;;5029362;28;20080;-77
2022/12/25 01:22:43;;;;;;;22.40;21.60;;;7.60;99.90;;;;;;5036841;28;20032;-76
2022/12/25 01:25:11;;;;;;;24.10;23.20;;;7.60;99.90;;;;;;5021282;28;20049;-76
2022/12/25 01:27:37;;;;;;;21.83;21.02;;;7.60;99.90;;;;;;5013542;28;20022;-76
2022/12/25 01:30:03;;;;;;;20.95;20.15;;;7.50;99.90;;;;;;5020543;28;20026;-76
2022/12/25 01:32:29;;;;;;;23.73;22.83;;;7.60;99.90;;;;;;5030459;28;20480;-77
2022/12/25 01:34:54;;;;;;;23.40;22.50;;;7.60;99.90;;;;;;5022011;28;20029;-77
2022/12/25 01:37:20;;;;;;;22.58;21.77;;;7.60;99.90;;;;;;5028125;28;20031;-77
2022/12/25 01:39:46;;;;;;;24.73;23.83;;;7.60;99.90;;;;;;5041607;28;20037;-78
2022/12/25 01:42:19;;;;;;;23.80;22.90;;;7.60;99.90;;;;;;5036216;28;20037;-78
2022/12/25 01:44:45;;;;;;;22.90;22.10;;;7.60;99.90;;;;;;5036184;28;20041;-77
2022/12/25 01:47:12;;;;;;;22.60;21.80;;;7.50;99.90;;;;;;5040944;28;20021;-76
2022/12/25 01:49:39;;;;;;;23.40;22.50;;;7.50;99.90;;;;;;5027550;28;20034;-77
2022/12/25 01:52:16;;;;;;;25.48;24.48;;;7.60;99.90;;;;;;5042357;28;20017;-77
2022/12/25 01:54:51;;;;;;;23.20;22.30;;;7.60;99.90;;;;;;5022848;28;20022;-77
2022/12/25 01:57:27;;;;;;;21.92;21.13;;;7.60;99.90;;;;;;5020449;28;20435;-76
2022/12/25 01:59:55;;;;;;;21.88;21.08;;;7.60;99.90;;;;;;5020641;28;20041;-77
2022/12/25 02:02:21;;;;;;;22.23;21.42;;;7.60;99.90;;;;;;5021198;28;20508;-78
2022/12/25 02:04:56;;;;;;;22.83;22.02;;;7.60;99.90;;;;;;5036332;28;20029;-77
2022/12/25 02:07:24;;;;;;;21.77;20.98;;;7.70;99.90;;;;;;5021724;28;20026;-76
2022/12/25 02:09:51;;;;;;;21.70;20.90;;;7.60;99.90;;;;;;5022679;28;20026;-78
2022/12/25 02:12:23;;;;;;;23.08;22.23;;;7.60;99.90;;;;;;5035895;28;20071;-77
2022/12/25 02:14:50;;;;;;;22.95;22.13;;;7.60;99.90;;;;;;5030334;28;20029;-78
2022/12/25 02:17:40;;;;;;;22.85;22.05;;;7.60;99.90;;;;;;5026588;28;20026;-78
2022/12/25 02:20:33;;;;;;;21.55;20.75;;;7.60;99.90;;;;;;5032416;28;20028;-77
2022/12/25 02:23:11;;;;;;;22.33;21.52;;;7.70;99.90;;;;;;5018341;28;20387;-78
2022/12/25 02:26:04;;;;;;;21.33;20.52;;;7.70;99.90;;;;;;5039807;28;20060;-77
2022/12/25 02:29:07;;;;;;;21.50;20.70;;;7.60;99.90;;;;;;5024679;28;20036;-77
2022/12/25 02:31:45;;;;;;;22.67;21.88;;;7.70;99.90;;;;;;5030102;28;20048;-77
2022/12/25 02:34:36;;;;;;;22.50;21.70;;;7.70;99.90;;;;;;5019278;28;20018;-77
2022/12/25 02:37:15;;;;;;;27.13;26.00;;;7.70;99.90;;;;;;5019316;28;20037;-77
2022/12/25 02:39:56;;;;;;;23.45;22.55;;;7.70;99.90;;;;;;5030388;28;20439;-77
2022/12/25 03:08:18;;;;;;;23.15;22.30;;;7.70;99.90;;;;;;5032528;28;20035;-77
2022/12/25 03:13:37;;;;;;;22.60;21.80;;;7.70;99.90;;;;;;5018036;28;20453;-78
2022/12/25 03:18:47;;;;;;;22.65;21.85;;;7.70;99.90;;;;;;5013014;28;20078;-76
2022/12/25 03:26:55;;;;;;;22.90;22.10;;;7.60;99.90;;;;;;5011193;28;20048;-76
2022/12/25 03:32:29;;;;;;;23.70;22.80;;;7.70;99.90;;;;;;5032622;28;20052;-79
2022/12/25 03:35:43;;;;;;;23.52;22.63;;;7.60;99.90;;;;;;5029042;28;20388;-79
2022/12/25 04:37:23;;;;;;;24.42;23.52;;;7.60;99.90;;;;;;5022239;28;20098;-76
2022/12/25 04:39:49;;;;;;;21.90;21.10;;;7.60;99.90;;;;;;5022845;28;20551;-75
2022/12/25 04:42:15;;;;;;;22.02;21.23;;;7.70;99.90;;;;;;5028757;28;20093;-76
2022/12/25 04:44:40;;;;;;;23.38;22.48;;;7.70;99.90;;;;;;5026945;28;20159;-76
2022/12/25 04:47:06;;;;;;;22.42;21.63;;;7.60;99.90;;;;;;5021571;28;20124;-76
2022/12/25 04:49:31;;;;;;;23.77;22.88;;;7.60;99.90;;;;;;5021716;28;20029;-76
2022/12/25 04:51:57;;;;;;;22.10;21.30;;;7.60;99.90;;;;;;5015207;28;20026;-75
2022/12/25 04:54:22;;;;;;;21.52;20.73;;;7.60;99.90;;;;;;5015349;28;20024;-75
2022/12/25 04:56:48;;;;;;;22.65;21.85;;;7.60;99.90;;;;;;5027177;28;20030;-75
2022/12/25 04:59:14;;;;;;;22.83;22.02;;;7.60;99.90;;;;;;5015889;28;20480;-74
2022/12/25 05:01:39;;;;;;;22.52;21.73;;;7.60;99.90;;;;;;5015053;28;20038;-75
2022/12/25 05:04:05;;;;;;;24.63;23.73;;;7.60;99.90;;;;;;5014997;28;20041;-74
2022/12/25 05:06:30;;;;;;;23.55;22.65;;;7.60;99.90;;;;;;5014938;28;20077;-75
2022/12/25 05:08:56;;;;;;;23.45;22.55;;;7.50;99.90;;;;;;5013468;28;20029;-75
2022/12/25 05:11:22;;;;;;;22.80;22.00;;;7.50;99.90;;;;;;5014992;28;20392;-75
2022/12/25 05:13:47;;;;;;;23.33;22.42;;;7.50;99.90;;;;;;5014899;28;20105;-75
2022/12/25 05:16:15;;;;;;;23.17;22.30;;;7.50;99.90;;;;;;5014839;28;20030;-75
2022/12/25 05:18:41;;;;;;;23.83;22.92;;;7.40;99.90;;;;;;5014648;28;20108;-75
2022/12/25 05:21:08;;;;;;;23.30;22.40;;;7.40;99.90;;;;;;5014683;28;20062;-75
2022/12/25 05:23:34;;;;;;;23.02;22.17;;;7.40;99.90;;;;;;5014842;28;20030;-76
2022/12/25 05:26:04;;;;;;;22.52;21.73;;;7.40;99.90;;;;;;5027815;28;20087;-75
2022/12/25 05:28:29;;;;;;;22.88;22.05;;;7.30;99.90;;;;;;5014440;28;20388;-75
2022/12/25 05:30:56;;;;;;;23.90;23.00;;;7.30;99.90;;;;;;5016546;28;20033;-75
2022/12/25 05:33:22;;;;;;;22.80;22.00;;;7.30;99.90;;;;;;5027734;28;20018;-75
2022/12/25 05:35:47;;;;;;;23.70;22.80;;;7.20;99.90;;;;;;5014379;28;20079;-75
2022/12/25 05:38:13;;;;;;;23.08;22.23;;;7.20;99.90;;;;;;5014207;28;20032;-75
2022/12/25 05:40:39;;;;;;;23.50;22.60;;;7.20;99.90;;;;;;5021042;28;20391;-76
2022/12/25 05:43:05;;;;;;;24.35;23.45;;;7.20;99.90;;;;;;5024920;28;20030;-77
2022/12/25 05:45:31;;;;;;;22.67;21.88;;;7.20;99.90;;;;;;5018031;28;20107;-76
2022/12/25 05:47:56;;;;;;;24.45;23.55;;;7.10;99.90;;;;;;5031256;28;20028;-77
2022/12/25 05:50:22;;;;;;;21.95;21.15;;;7.10;99.90;;;;;;5025722;28;20021;-78
2022/12/25 05:52:47;;;;;;;22.33;21.52;;;7.10;99.90;;;;;;5026295;28;20026;-77
2022/12/25 05:55:13;;;;;;;21.63;20.83;;;7.10;99.90;;;;;;5032611;28;20022;-76
2022/12/25 05:57:39;;;;;;;20.15;19.45;;;6.80;99.90;;;;;;5021293;28;20479;-75
2022/12/25 06:00:05;;;;;;;19.60;18.90;;;6.60;99.90;;;;;;5014227;28;20044;-76
2022/12/25 06:02:31;;;;;;;21.15;20.35;;;6.40;99.90;;;;;;5012280;28;20051;-75
2022/12/25 06:04:56;;;;;;;20.48;19.75;;;6.50;99.90;;;;;;5019164;28;20029;-75
2022/12/25 06:07:22;;;;;;;22.02;21.23;;;6.60;99.90;;;;;;5021961;28;20038;-76
2022/12/25 06:09:47;;;;;;;21.75;20.95;;;6.50;99.90;;;;;;5020140;28;20480;-76
2022/12/25 06:12:13;;;;;;;21.75;20.95;;;6.60;99.90;;;;;;5022561;28;20026;-77
2022/12/25 06:14:38;;;;;;;21.45;20.65;;;6.60;99.90;;;;;;5014612;28;20026;-77
2022/12/25 06:17:04;;;;;;;21.25;20.45;;;6.70;99.90;;;;;;5025026;28;20521;-76
2022/12/25 06:19:29;;;;;;;21.25;20.45;;;6.80;99.90;;;;;;5018787;28;20035;-76
2022/12/25 06:21:55;;;;;;;21.00;20.20;;;6.70;99.90;;;;;;5022277;28;20053;-75
2022/12/25 06:24:24;;;;;;;18.75;18.05;;;6.70;99.90;;;;;;5019471;28;20096;-75
2022/12/25 06:26:49;;;;;;;20.80;20.00;;;6.70;99.90;;;;;;5033106;28;20029;-75
2022/12/25 06:29:15;;;;;;;20.65;19.88;;;6.50;99.90;;;;;;5033384;28;20408;-75
2022/12/25 06:31:41;;;;;;;32.63;30.25;;;6.40;99.90;;;;;;5033218;28;20025;-75
2022/12/25 06:34:06;;;;;;;19.70;19.00;;;6.40;99.90;;;;;;5027143;28;20046;-75
2022/12/25 06:36:32;;;;;;;20.80;20.00;;;6.30;99.90;;;;;;5024572;28;20049;-76
2022/12/25 06:39:01;;;;;;;20.17;19.48;;;6.40;99.90;;;;;;5019670;28;20026;-74
2022/12/25 06:41:29;;;;;;;20.10;19.40;;;6.40;99.90;;;;;;5020007;28;20057;-74
2022/12/25 06:43:58;;;;;;;21.20;20.40;;;6.40;99.90;;;;;;5025357;28;20476;-74
2022/12/25 06:46:25;;;;;;;20.10;19.40;;;6.50;99.90;;;;;;5025089;28;20395;-74
2022/12/25 06:48:52;;;;;;;20.02;19.33;;;6.50;99.90;;;;;;5019875;28;20071;-74
2022/12/25 06:51:20;;;;;;;20.25;19.55;;;6.30;99.90;;;;;;5019703;28;20051;-74
2022/12/25 06:53:49;;;;;;;20.23;19.52;;;6.50;99.90;;;;;;5025879;28;20026;-74
2022/12/25 06:56:17;;;;;;;20.83;20.02;;;6.50;99.90;;;;;;5026449;28;20036;-74
2022/12/25 06:58:48;;;;;;;20.98;20.17;;;6.60;99.90;;;;;;5012945;28;20037;-76
2022/12/25 07:01:19;;;;;;;21.17;20.35;;;6.50;99.90;;;;;;5012902;28;20036;-76
2022/12/25 07:03:46;;;;;;;19.52;18.83;;;6.60;99.90;;;;;;5012821;28;20387;-76
2022/12/25 07:06:12;;;;;;;20.40;19.70;;;6.60;99.90;;;;;;5013903;28;20030;-76
2022/12/25 07:08:38;;;;;;;18.95;18.25;;;6.50;99.90;;;;;;5023851;28;20034;-76
2022/12/25 07:11:03;;;;;;;19.52;18.83;;;6.50;99.90;;;;;;5014533;28;20030;-76
2022/12/25 07:13:29;;;;;;;19.00;18.30;;;6.60;99.90;;;;;;5024085;28;20104;-76
2022/12/25 07:15:59;;;;;;;19.42;18.73;;;6.60;99.90;;;;;;5013331;28;20036;-76
2022/12/25 07:18:26;;;;;;;21.48;20.67;;;6.60;99.90;;;;;;5023110;28;20109;-75
2022/12/25 07:20:51;;;;;;;21.52;20.73;;;6.70;99.90;;;;;;5024321;28;20049;-77
2022/12/25 07:23:17;;;;;;;20.98;20.17;;;6.60;99.90;;;;;;5022067;28;20064;-76
2022/12/25 07:25:43;;;;;;;21.40;20.60;;;6.70;99.90;;;;;;5028761;28;20058;-76
2022/12/25 07:28:08;;;;;;;21.60;20.80;;;6.60;99.90;;;;;;5022595;28;20758;-77
2022/12/25 07:30:34;;;;;;;21.42;20.52;;;6.60;99.90;;;;;;5018497;28;20032;-77
2022/12/25 07:32:59;;;;;;;20.85;20.08;;;6.70;99.90;;;;;;5023436;28;20032;-76
2022/12/25 07:35:25;;;;;;;20.77;19.98;;;6.70;99.90;;;;;;5029920;28;20476;-77
2022/12/25 07:37:50;;;;;;;20.35;19.65;;;6.70;99.90;;;;;;5021586;28;20508;-77
2022/12/25 07:40:16;;;;;;;20.15;19.45;;;6.70;99.90;;;;;;5024941;28;20041;-76
2022/12/25 07:42:42;;;;;;;21.48;20.67;;;6.60;99.90;;;;;;5022499;28;20480;-77
2022/12/25 07:45:08;;;;;;;20.10;19.40;;;6.60;99.90;;;;;;5017299;28;20052;-78
2022/12/25 07:47:33;;;;;;;20.27;19.48;;;6.60;99.90;;;;;;5029960;28;20087;-78
2022/12/25 07:49:59;;;;;;;21.08;20.27;;;6.70;99.90;;;;;;5017214;28;20503;-77
2022/12/25 07:52:24;;;;;;;21.77;20.98;;;6.70;99.90;;;;;;5021165;28;20116;-76
2022/12/25 07:54:50;;;;;;;20.50;19.75;;;6.70;99.90;;;;;;5027884;28;20053;-76
2022/12/25 07:57:15;;;;;;;20.80;20.00;;;6.80;99.90;;;;;;5023929;28;20037;-77
2022/12/25 07:59:41;;;;;;;21.55;20.75;;;6.80;99.90;;;;;;5015614;28;20072;-76
2022/12/25 08:02:08;;;;;;;21.42;20.63;;;6.80;99.90;;;;;;5039203;28;20062;-76
2022/12/25 08:04:33;;;;;;;21.45;20.65;;;6.80;99.90;;;;;;5034249;28;20022;-77
2022/12/25 08:06:59;;;;;;;20.88;20.08;;;6.80;99.90;;;;;;5028096;28;20388;-76
2022/12/25 08:09:24;;;;;;;21.38;20.58;;;6.90;99.90;;;;;;5028556;28;20031;-76
2022/12/25 08:11:50;;;;;;;19.52;18.63;;;7.00;99.90;;;;;;5023622;28;20109;-77
2022/12/25 08:14:15;;;;;;;19.63;18.92;;;7.00;99.90;;;;;;5018412;28;20122;-76
2022/12/25 08:16:41;;;;;;;19.35;18.65;;;7.00;99.90;;;;;;5030910;28;20032;-76
2022/12/25 08:19:08;;;;;;;20.38;19.65;;;7.10;99.90;;;;;;5033145;28;20026;-76
2022/12/25 08:21:33;;;;;;;19.20;18.50;;;7.10;99.90;;;;;;5030584;28;20048;-76
2022/12/25 08:23:59;;;;;;;18.27;17.58;;;7.20;99.90;;;;;;5014515;28;20476;-76
2022/12/25 08:26:24;;;;;;;18.90;18.20;;;7.30;99.90;;;;;;5011579;28;20093;-76
2022/12/25 08:28:50;;;;;;;18.60;17.90;;;7.30;99.90;;;;;;5024053;28;20049;-76
2022/12/25 08:31:22;;;;;;;19.65;18.95;;;7.40;99.90;;;;;;5023312;28;20029;-76
2022/12/25 08:33:49;;;;;;;18.70;18.00;;;7.40;99.90;;;;;;5031212;28;20084;-76
2022/12/25 08:36:15;;;;;;;19.50;18.80;;;7.40;99.90;;;;;;5021907;28;20018;-76
2022/12/25 08:38:41;;;;;;;19.13;18.42;;;7.30;99.90;;;;;;5040676;28;20033;-76
2022/12/25 08:41:07;;;;;;;20.05;19.35;;;7.30;99.90;;;;;;5019779;28;20064;-76
2022/12/25 08:43:33;;;;;;;20.60;19.80;;;7.20;99.90;;;;;;5023296;28;20133;-76
2022/12/25 08:45:58;;;;;;;20.70;19.90;;;7.30;99.90;;;;;;5021351;28;20113;-75
2022/12/25 08:48:24;;;;;;;19.80;19.10;;;7.30;99.90;;;;;;5014106;28;20399;-76
2022/12/25 08:50:51;;;;;;;19.15;18.45;;;7.40;99.90;;;;;;5010637;28;20041;-76
2022/12/25 08:53:16;;;;;;;20.40;19.65;;;7.40;99.90;;;;;;5010604;28;20026;-76
2022/12/25 08:55:43;;;;;;;19.80;19.10;;;7.50;99.90;;;;;;5011581;28;20025;-77
2022/12/25 08:58:08;;;;;;;19.95;19.25;;;7.50;99.90;;;;;;5013819;28;20030;-77
2022/12/25 09:00:35;;;;;;;18.80;18.10;;;7.50;99.90;;;;;;5020424;28;20036;-77
2022/12/25 09:03:00;;;;;;;19.80;19.10;;;7.50;99.90;;;;;;5024376;28;20022;-76
2022/12/25 09:05:26;;;;;;;19.00;18.30;;;7.60;99.90;;;;;;5022764;28;20079;-77
2022/12/25 09:07:51;;;;;;;19.15;18.45;;;7.60;99.90;;;;;;5020807;28;20492;-77
2022/12/25 09:10:17;;;;;;;19.58;18.88;;;7.60;99.90;;;;;;5025483;28;20092;-76
2022/12/25 09:12:42;;;;;;;20.55;19.75;;;7.60;99.90;;;;;;5028092;28;20037;-76
2022/12/25 09:15:08;;;;;;;19.60;18.90;;;7.50;99.90;;;;;;5024329;28;20033;-77
2022/12/25 09:17:34;;;;;;;19.15;18.45;;;7.50;99.90;;;;;;5020648;28;20025;-77
2022/12/25 09:20:00;;;;;;;18.35;17.65;;;7.50;99.90;;;;;;5034681;28;20391;-75
2022/12/25 09:22:25;;;;;;;19.10;18.40;;;7.40;99.90;;;;;;5034269;28;20057;-76
2022/12/25 09:24:51;;;;;;;19.98;19.27;;;7.40;99.90;;;;;;5034159;28;20026;-76
2022/12/25 09:27:17;;;;;;;19.88;19.17;;;7.50;99.90;;;;;;5017225;28;20030;-75
2022/12/25 09:29:42;;;;;;;19.00;18.30;;;7.50;99.90;;;;;;5014467;28;20029;-76
2022/12/25 09:32:08;;;;;;;17.95;17.30;;;7.70;99.90;;;;;;5033298;28;20025;-76
2022/12/25 09:34:34;;;;;;;19.10;18.40;;;7.70;99.90;;;;;;5034221;28;20032;-76
2022/12/25 09:37:00;;;;;;;18.95;18.25;;;7.70;99.90;;;;;;5033521;28;20029;-75
2022/12/25 09:39:26;;;;;;;19.30;18.60;;;7.90;99.90;;;;;;5022918;28;20025;-75
2022/12/25 09:41:55;;;;;;;19.13;18.42;;;8.00;99.90;;;;;;5017245;28;20419;-76
2022/12/25 09:44:25;;;;;;;18.50;17.80;;;8.10;99.90;;;;;;5022445;28;20040;-76
2022/12/25 09:47:17;;;;;;;18.63;17.92;;;8.30;99.90;;;;;;5025592;28;20026;-75
2022/12/25 09:50:02;;;;;;;19.17;18.48;;;8.20;99.90;;;;;;5015072;28;20112;-75
2022/12/25 09:52:46;;;;;;;20.60;19.83;;;8.20;99.90;;;;;;5022065;28;20049;-75
2022/12/25 09:55:19;;;;;;;20.60;19.83;;;8.30;99.90;;;;;;5033445;28;20109;-76
2022/12/25 09:57:48;;;;;;;19.70;18.92;;;8.30;99.90;;;;;;5019594;28;20446;-76
2022/12/25 10:00:17;;;;;;;21.27;20.48;;;8.50;99.90;;;;;;5013955;28;20026;-76
2022/12/25 10:03:11;;;;;;;18.48;17.77;;;8.60;99.90;;;;;;5013800;28;20022;-76
2022/12/25 10:06:14;;;;;;;18.60;17.90;;;8.70;99.90;;;;;;5033528;28;20030;-76
2022/12/25 10:09:09;;;;;;;17.15;16.55;;;8.80;99.90;;;;;;5023497;28;20036;-76
2022/12/25 10:11:54;;;;;;;18.90;18.20;;;8.80;99.90;;;;;;5033438;28;20030;-76
2022/12/25 10:14:27;;;;;;;18.70;18.00;;;8.90;99.90;;;;;;5018791;28;20605;-75
2022/12/25 10:17:25;;;;;;;17.02;16.42;;;9.00;99.90;;;;;;5030936;28;20037;-76
2022/12/25 10:20:25;;;;;;;18.90;18.20;;;9.00;99.90;;;;;;5024526;28;20018;-75
2022/12/25 10:22:56;;;;;;;18.33;17.63;;;9.10;99.90;;;;;;5018795;28;20033;-75
2022/12/25 10:25:23;;;;;;;19.90;19.20;;;9.00;99.90;;;;;;5032215;28;20033;-77
2022/12/25 10:27:56;;;;;;;20.85;20.05;;;9.10;99.90;;;;;;5012961;28;20030;-76
2022/12/25 10:30:24;;;;;;;17.90;17.20;;;9.10;99.90;;;;;;5025594;28;20071;-76
2022/12/25 10:32:51;;;;;;;19.02;18.33;;;9.20;99.90;;;;;;5029242;28;20025;-76
2022/12/25 10:35:19;;;;;;;18.50;17.80;;;9.40;99.90;;;;;;5014331;28;20022;-76
2022/12/25 10:37:52;;;;;;;19.35;18.65;;;9.60;99.90;;;;;;5023838;28;20030;-76
2022/12/25 10:40:29;;;;;;;21.40;20.60;;;9.60;99.90;;;;;;5030094;28;20030;-76
2022/12/25 10:43:03;;;;;;;20.20;19.50;;;9.70;99.90;;;;;;5032999;28;20499;-76
2022/12/25 10:45:28;;;;;;;19.02;18.33;;;9.70;99.90;;;;;;5025663;28;20041;-76
2022/12/25 10:48:03;;;;;;;21.00;20.20;;;9.80;99.90;;;;;;5025362;28;20029;-76
2022/12/25 10:50:29;;;;;;;19.17;18.48;;;9.80;99.90;;;;;;5011805;28;20160;-76
2022/12/25 10:53:04;;;;;;;20.33;19.63;;;9.70;99.90;;;;;;5026544;28;20104;-76
2022/12/25 10:55:31;;;;;;;19.85;19.15;;;9.60;99.90;;;;;;5032811;28;20426;-76
2022/12/25 10:57:57;;;;;;;19.70;19.00;;;9.50;99.90;;;;;;5031740;28;20021;-76
2022/12/25 11:00:28;;;;;;;20.55;19.80;;;9.70;99.90;;;;;;5023356;28;20025;-77
2022/12/25 11:02:54;;;;;;;17.25;16.65;;;9.90;99.90;;;;;;5034150;28;20039;-77
2022/12/25 11:05:26;;;;;;;16.35;15.75;;;10.00;99.90;;;;;;5025777;28;20101;-77
2022/12/25 11:07:55;;;;;;;17.70;17.10;;;10.20;99.90;;;;;;5026734;28;20080;-77
2022/12/25 11:10:35;;;;;;;15.02;14.52;;;10.30;99.90;;;;;;5025576;28;20017;-76
2022/12/25 11:13:03;;;;;;;15.48;14.88;;;10.30;99.90;;;;;;5027349;28;20128;-76
2022/12/25 11:15:41;;;;;;;16.02;15.43;;;10.20;99.90;;;;;;5028190;28;20030;-76
2022/12/25 11:18:19;;;;;;;15.63;15.02;;;10.30;99.90;;;;;;5022872;28;20033;-76
2022/12/25 11:20:52;;;;;;;16.15;15.55;;;10.30;99.90;;;;;;5018138;28;20033;-77
2022/12/25 11:23:19;;;;;;;15.15;14.63;;;10.40;99.90;;;;;;5013866;28;20026;-77
2022/12/25 11:25:54;;;;;;;15.38;14.80;;;10.40;99.90;;;;;;5031826;28;20024;-77
2022/12/25 11:28:20;;;;;;;16.27;15.67;;;10.30;99.90;;;;;;5022813;28;20029;-77
2022/12/25 11:30:52;;;;;;;15.70;15.10;;;10.30;99.90;;;;;;5027918;28;20030;-76
2022/12/25 11:33:19;;;;;;;16.17;15.57;;;10.30;99.90;;;;;;5027357;28;20079;-77
2022/12/25 11:35:52;;;;;;;15.18;14.65;;;10.30;99.90;;;;;;5015232;28;20022;-77
2022/12/25 11:38:18;;;;;;;14.52;14.02;;;10.30;99.90;;;;;;5014449;28;20017;-77
2022/12/25 11:40:49;;;;;;;16.05;14.93;;;10.30;99.90;;;;;;5024435;28;20034;-78
2022/12/25 11:43:52;;;;;;;14.70;14.20;;;10.30;99.90;;;;;;5028561;28;20040;-77
2022/12/25 11:46:36;;;;;;;14.32;13.82;;;10.50;99.90;;;;;;4990942;28;20044;-77
2022/12/25 11:49:07;;;;;;;11.38;10.98;;;10.30;99.90;;;;;;5023324;28;20080;-76
2022/12/25 11:51:36;;;;;;;13.75;13.25;;;10.30;99.90;;;;;;5029091;28;20112;-76
2022/12/25 11:54:26;;;;;;;12.00;11.60;;;10.30;99.90;;;;;;5029995;28;20496;-76
2022/12/25 11:56:54;;;;;;;11.48;11.07;;;10.30;99.90;;;;;;5017610;28;20514;-77
2022/12/25 11:59:20;;;;;;;9.50;9.20;;;10.30;99.90;;;;;;5019636;28;20025;-76
2022/12/25 12:01:50;;;;;;;10.55;10.15;;;10.30;99.90;;;;;;5028461;28;20403;-76
2022/12/25 12:04:38;;;;;;;7.38;7.13;;;10.30;99.90;;;;;;5025727;28;20490;-75
2022/12/25 12:07:12;;;;;;;8.98;8.68;;;10.30;99.90;;;;;;5024139;28;20434;-75
2022/12/25 12:09:56;;;;;;;9.73;9.32;;;10.30;99.90;;;;;;5014081;28;20105;-75
2022/12/25 12:13:09;;;;;;;10.10;9.70;;;10.40;99.90;;;;;;5011671;28;20022;-74
2022/12/25 12:15:45;;;;;;;7.60;7.30;;;10.30;99.90;;;;;;5004927;28;20034;-74
2022/12/25 12:18:24;;;;;;;8.88;8.57;;;10.30;99.90;;;;;;5019201;28;20025;-75
2022/12/25 12:20:58;;;;;;;8.10;7.80;;;10.40;99.90;;;;;;5030464;28;20061;-75
2022/12/25 12:23:25;;;;;;;7.30;7.10;;;10.30;99.90;;;;;;5027537;28;20034;-77
2022/12/25 12:25:52;;;;;;;7.97;7.68;;;10.30;99.90;;;;;;5030966;28;20070;-76
2022/12/25 12:28:38;;;;;;;7.70;7.40;;;10.30;99.90;;;;;;5019980;28;20030;-76
2022/12/25 12:31:05;;;;;;;7.90;7.60;;;10.20;99.90;;;;;;5021703;28;20471;-76
2022/12/25 12:33:36;;;;;;;8.20;7.90;;;10.20;99.90;;;;;;5035150;28;20032;-76
2022/12/25 12:36:04;;;;;;;8.30;8.00;;;10.20;99.90;;;;;;5027250;28;20104;-76
2022/12/25 12:38:31;;;;;;;7.40;7.20;;;10.10;99.90;;;;;;5022435;28;20061;-76
2022/12/25 12:41:02;;;;;;;6.72;6.53;;;10.10;99.90;;;;;;5034052;28;20049;-75
2022/12/25 12:43:52;;;;;;;7.20;7.00;;;10.10;99.90;;;;;;5031450;28;20026;-76
2022/12/25 12:46:31;;;;;;;6.90;6.70;;;10.10;99.90;;;;;;5035470;28;20087;-75
2022/12/25 12:49:25;;;;;;;6.82;6.63;;;10.10;99.90;;;;;;5023194;28;20032;-76
2022/12/25 12:52:23;;;;;;;5.50;5.30;;;10.10;99.90;;;;;;5026194;28;20041;-76
2022/12/25 12:54:59;;;;;;;6.30;6.00;;;10.20;99.90;;;;;;5018942;28;20079;-76
2022/12/25 12:57:31;;;;;;;6.40;6.20;;;10.20;99.90;;;;;;5015087;28;20065;-76
2022/12/25 12:59:58;;;;;;;6.15;5.95;;;10.20;99.90;;;;;;5027344;28;20083;-76
2022/12/25 13:02:35;;;;;;;6.30;6.10;;;10.30;99.90;;;;;;5015240;28;20050;-75
2022/12/25 13:05:16;;;;;;;6.10;5.90;;;10.30;99.90;;;;;;5015208;28;20022;-76
2022/12/25 13:07:59;;;;;;;5.90;5.70;;;10.30;99.90;;;;;;5026758;28;20030;-75
2022/12/25 13:10:30;;;;;;;6.10;5.90;;;10.30;99.90;;;;;;5015293;28;20384;-76
2022/12/25 13:13:01;;;;;;;6.43;6.22;;;10.20;99.90;;;;;;5017822;28;20486;-76
2022/12/25 13:15:32;;;;;;;6.70;6.50;;;10.30;99.90;;;;;;5030672;28;20079;-76
2022/12/25 13:18:03;;;;;;;6.15;5.95;;;10.30;99.90;;;;;;5027737;28;20026;-76
2022/12/25 13:20:38;;;;;;;6.63;6.40;;;10.30;99.90;;;;;;5014890;28;20032;-76
2022/12/25 13:23:23;;;;;;;;;;;10.30;99.90;;;;;;5014985;28;20026;-76
2022/12/25 13:25:54;;;;;;;6.28;6.07;;;10.40;99.90;;;;;;5030893;28;19909;-75
2022/12/25 13:28:27;;;;;;;6.63;6.43;;;10.40;99.90;;;;;;5021834;28;20392;-76
2022/12/25 13:30:52;;;;;;;6.38;6.18;;;10.40;99.90;;;;;;5015700;28;20044;-76
2022/12/25 13:33:19;;;;;;;6.60;6.40;;;10.40;99.90;;;;;;5026481;28;20026;-76
2022/12/25 13:35:45;;;;;;;7.30;7.07;;;10.40;99.90;;;;;;5014335;28;20018;-75
2022/12/25 13:38:16;;;;;;;6.55;6.35;;;10.40;99.90;;;;;;5012973;28;20030;-76
2022/12/25 13:42:04;;;;;;;6.50;6.30;;;10.40;99.90;;;;;;5014307;28;20029;-76
2022/12/25 13:43:39;;;;;;;5.40;5.20;;;10.40;99.90;;;;;;5014265;28;20489;-76
2022/12/25 13:46:05;;;;;;;6.43;6.22;;;10.50;99.90;;;;;;5015069;28;20034;-76
2022/12/25 13:48:31;;;;;;;6.50;6.30;;;10.40;99.90;;;;;;5014194;28;20498;-75
2022/12/25 13:50:59;;;;;;;6.55;6.35;;;10.40;99.90;;;;;;5013993;28;20022;-77
2022/12/25 13:53:24;;;;;;;5.60;5.40;;;10.50;99.90;;;;;;5014596;28;20033;-77
2022/12/25 13:55:53;;;;;;;5.43;5.22;;;10.60;99.90;;;;;;5012576;28;20022;-76
2022/12/25 13:58:26;;;;;;;5.75;5.45;;;10.80;99.90;;;;;;5010737;28;20026;-76
2022/12/25 14:00:55;;;;;;;5.47;5.28;;;10.80;99.90;;;;;;5012228;28;20053;-76
2022/12/25 14:03:38;;;;;;;5.80;5.60;;;10.80;99.90;;;;;;5012174;28;20084;-76
2022/12/25 14:06:14;;;;;;;5.68;5.47;;;10.80;99.90;;;;;;5023958;28;20025;-76
2022/12/25 14:08:40;;;;;;;6.10;5.90;;;10.80;99.90;;;;;;5022039;28;20570;-76
2022/12/25 14:11:07;;;;;;;6.30;6.10;;;10.80;99.90;;;;;;5027099;28;20117;-76
2022/12/25 14:13:39;;;;;;;6.40;6.20;;;10.70;99.90;;;;;;5023498;28;20021;-77
2022/12/25 14:16:05;;;;;;;6.35;6.15;;;10.70;99.90;;;;;;5027305;28;20036;-76
2022/12/25 14:18:31;;;;;;;7.22;7.03;;;10.80;99.90;;;;;;5013393;28;20029;-76
2022/12/25 14:21:01;;;;;;;8.27;7.97;;;10.70;99.90;;;;;;5012404;28;20084;-76
2022/12/25 14:23:42;;;;;;;5.28;5.07;;;10.60;99.90;;;;;;5014015;28;20068;-76
2022/12/25 14:26:22;;;;;;;7.35;7.15;;;10.60;99.90;;;;;;5012453;28;20721;-76
2022/12/25 14:29:10;;;;;;;6.80;6.60;;;10.50;99.90;;;;;;5028752;28;20026;-76
2022/12/25 14:31:37;;;;;;;5.72;5.53;;;10.50;99.90;;;;;;5043297;28;20021;-77
2022/12/25 14:34:06;;;;;;;5.35;5.15;;;10.40;99.90;;;;;;5036786;28;20049;-76